Time;durP1;ratioP1;P1;durP2;ratioP2;P2;SDS_P1;SDS_P2;PMS_P1;PMS_P2;Temp;Humidity;BMP_temperature;BMP_pressure;BME280_temperature;BME280_humidity;BME280_pressure;Samples;Min_cycle;Max_cycle;Signal;HPM_P1;HPM_P2
2023/06/11 00:04:51;;;;;;;2.58;1.30;;;;;;;;;;20913017;28;20092;-63
2023/06/11 00:14:53;;;;;;;1.73;1.10;;;;;;;;;;20926080;28;20049;-64
2023/06/11 00:24:54;;;;;;;4.25;1.33;;;;;;;;;;20928425;28;20094;-63
2023/06/11 00:34:55;;;;;;;3.38;1.20;;;;;;;;;;20925898;28;20102;-64
2023/06/11 00:44:56;;;;;;;3.28;1.23;;;;;;;;;;20926668;28;20375;-64
2023/06/11 00:54:57;;;;;;;4.70;1.50;;;;;;;;;;20925147;28;20059;-65
2023/06/11 01:05:00;;;;;;;3.03;1.20;;;;;;;;;;20923173;28;20037;-64
2023/06/11 01:15:01;;;;;;;3.00;1.33;;;;;;;;;;20924268;28;20452;-63
2023/06/11 01:25:25;;;;;;;3.38;1.48;;;;;;;;;;20923014;28;20083;-64
2023/06/11 01:35:27;;;;;;;3.95;1.23;;;;;;;;;;20923973;28;20432;-64
2023/06/11 01:45:32;;;;;;;2.30;1.30;;;;;;;;;;20921018;28;20089;-65
2023/06/11 01:55:33;;;;;;;2.95;1.20;;;;;;;;;;20921736;28;20053;-64
2023/06/11 02:05:35;;;;;;;2.78;1.27;;;;;;;;;;20920510;28;20045;-63
2023/06/11 02:15:36;;;;;;;4.00;1.55;;;;;;;;;;20919803;28;20045;-64
2023/06/11 02:25:37;;;;;;;3.00;1.52;;;;;;;;;;20917562;28;20037;-64
2023/06/11 02:35:38;;;;;;;2.95;1.35;;;;;;;;;;20918320;28;20134;-64
2023/06/11 02:45:40;;;;;;;3.00;1.45;;;;;;;;;;20917526;28;20112;-64
2023/06/11 02:55:41;;;;;;;2.70;1.80;;;;;;;;;;20916630;28;20091;-64
2023/06/11 03:05:42;;;;;;;2.35;1.40;;;;;;;;;;20916076;28;20049;-64
2023/06/11 03:15:43;;;;;;;2.17;1.30;;;;;;;;;;20915434;28;20544;-64
2023/06/11 03:25:44;;;;;;;2.42;1.30;;;;;;;;;;20914711;28;20496;-64
2023/06/11 03:35:45;;;;;;;2.75;1.40;;;;;;;;;;20913939;28;20060;-64
2023/06/11 03:45:46;;;;;;;5.20;2.22;;;;;;;;;;20927410;28;20087;-64
2023/06/11 03:55:47;;;;;;;4.15;1.75;;;;;;;;;;20940953;28;20060;-64
2023/06/11 04:05:48;;;;;;;2.38;1.60;;;;;;;;;;20939434;28;20045;-64
2023/06/11 04:15:50;;;;;;;3.20;1.60;;;;;;;;;;20940349;28;20124;-64
2023/06/11 04:25:51;;;;;;;3.13;1.50;;;;;;;;;;20939956;28;20044;-64
2023/06/11 04:35:52;;;;;;;4.18;1.80;;;;;;;;;;20940781;28;20056;-64
2023/06/11 04:45:56;;;;;;;4.38;1.50;;;;;;;;;;20938157;28;20037;-64
2023/06/11 04:56:02;;;;;;;2.17;1.40;;;;;;;;;;20933239;28;20052;-63
2023/06/11 05:06:04;;;;;;;6.25;2.22;;;;;;;;;;20925327;28;20045;-64
2023/06/11 05:16:05;;;;;;;3.00;1.65;;;;;;;;;;20924261;28;20098;-64
2023/06/11 05:26:12;;;;;;;4.38;1.50;;;;;;;;;;20923555;28;20060;-64
2023/06/11 05:36:13;;;;;;;2.92;1.92;;;;;;;;;;20921673;28;20053;-64
2023/06/11 05:46:15;;;;;;;5.60;1.83;;;;;;;;;;20922147;28;20056;-63
2023/06/11 05:56:16;;;;;;;4.25;1.85;;;;;;;;;;20921135;28;20120;-63
2023/06/11 06:06:18;;;;;;;3.80;1.67;;;;;;;;;;20920355;28;20112;-63
2023/06/11 06:16:19;;;;;;;2.85;1.85;;;;;;;;;;20919878;28;20067;-63
2023/06/11 06:26:22;;;;;;;3.30;1.80;;;;;;;;;;20919035;28;20418;-63
2023/06/11 06:36:23;;;;;;;4.50;2.30;;;;;;;;;;20917309;28;20052;-65
2023/06/11 06:46:25;;;;;;;16.85;9.20;;;;;;;;;;20917357;28;20048;-65
2023/06/11 06:56:26;;;;;;;4.45;1.77;;;;;;;;;;20915235;28;20131;-64
2023/06/11 07:06:28;;;;;;;2.25;1.30;;;;;;;;;;20915781;28;20049;-64
2023/06/11 07:16:29;;;;;;;5.95;1.40;;;;;;;;;;20914621;28;20045;-64
2023/06/11 07:26:30;;;;;;;6.43;1.80;;;;;;;;;;20914257;28;20480;-64
2023/06/11 07:36:31;;;;;;;37.33;3.97;;;;;;;;;;20914094;28;20070;-64
2023/06/11 07:46:32;;;;;;;2.40;1.25;;;;;;;;;;20913874;28;20033;-65
2023/06/11 07:56:33;;;;;;;2.75;1.45;;;;;;;;;;20912010;28;20049;-64
2023/06/11 08:06:35;;;;;;;4.60;1.30;;;;;;;;;;20910931;28;20052;-65
2023/06/11 08:16:37;;;;;;;5.00;1.25;;;;;;;;;;20912296;28;20513;-65
2023/06/11 08:26:38;;;;;;;4.18;1.50;;;;;;;;;;20910312;28;20049;-64
2023/06/11 08:36:43;;;;;;;1.63;0.93;;;;;;;;;;20925158;28;20568;-64
2023/06/11 08:46:45;;;;;;;2.53;1.20;;;;;;;;;;20926525;28;20110;-65
2023/06/11 08:56:46;;;;;;;3.45;1.95;;;;;;;;;;20924377;28;20053;-64
2023/06/11 09:06:50;;;;;;;2.92;1.75;;;;;;;;;;20923729;28;20052;-64
2023/06/11 09:16:52;;;;;;;1.67;0.82;;;;;;;;;;20923967;28;20048;-64
2023/06/11 09:26:53;;;;;;;1.90;0.93;;;;;;;;;;20921963;28;20041;-65
2023/06/11 09:36:54;;;;;;;4.38;1.83;;;;;;;;;;20922914;28;20053;-65
2023/06/11 09:46:57;;;;;;;1.95;1.08;;;;;;;;;;20920156;28;20053;-64
2023/06/11 09:56:58;;;;;;;2.25;1.10;;;;;;;;;;20919791;28;20052;-65
2023/06/11 10:07:01;;;;;;;2.03;1.00;;;;;;;;;;20920096;28;20048;-64
2023/06/11 10:17:07;;;;;;;1.92;0.90;;;;;;;;;;20918045;28;20053;-64
2023/06/11 10:27:08;;;;;;;2.53;1.00;;;;;;;;;;20917119;28;20045;-65
2023/06/11 10:37:10;;;;;;;3.45;0.90;;;;;;;;;;20917898;28;20143;-65
2023/06/11 10:47:11;;;;;;;3.47;1.10;;;;;;;;;;20916937;28;20052;-65
2023/06/11 10:57:13;;;;;;;2.60;1.00;;;;;;;;;;20915110;28;20056;-64
2023/06/11 11:07:14;;;;;;;6.50;3.53;;;;;;;;;;20913632;28;20076;-65
2023/06/11 11:17:15;;;;;;;3.17;1.58;;;;;;;;;;20912323;28;20128;-65
2023/06/11 11:27:16;;;;;;;5.63;1.70;;;;;;;;;;20912258;28;20053;-65
2023/06/11 11:37:18;;;;;;;4.68;1.73;;;;;;;;;;20913072;28;20056;-64
2023/06/11 11:47:20;;;;;;;2.88;1.15;;;;;;;;;;20913244;28;20045;-64
2023/06/11 11:57:21;;;;;;;4.20;1.55;;;;;;;;;;20911404;28;20375;-65
2023/06/11 12:07:22;;;;;;;4.07;1.73;;;;;;;;;;20921223;28;20482;-65
2023/06/11 12:17:24;;;;;;;3.50;1.20;;;;;;;;;;20927459;28;20099;-65
2023/06/11 12:27:25;;;;;;;2.63;1.25;;;;;;;;;;20927644;28;20544;-66
2023/06/11 12:37:28;;;;;;;2.42;1.00;;;;;;;;;;20926103;28;20049;-65
2023/06/11 12:47:29;;;;;;;3.30;1.15;;;;;;;;;;20926503;28;20458;-65
2023/06/11 12:57:30;;;;;;;2.15;1.30;;;;;;;;;;20925960;28;20080;-64
2023/06/11 13:07:31;;;;;;;2.35;0.98;;;;;;;;;;20925643;28;20037;-65
2023/06/11 13:17:32;;;;;;;2.47;1.10;;;;;;;;;;20922571;28;20037;-65
2023/06/11 13:27:34;;;;;;;4.18;1.80;;;;;;;;;;20922658;28;20045;-65
2023/06/11 13:37:35;;;;;;;2.97;1.40;;;;;;;;;;20922890;28;20045;-67
2023/06/11 13:47:36;;;;;;;4.90;1.55;;;;;;;;;;20922218;28;20091;-66
2023/06/11 13:57:37;;;;;;;3.33;1.20;;;;;;;;;;20921217;28;20087;-66
2023/06/11 14:07:38;;;;;;;3.10;1.23;;;;;;;;;;20920197;28;20074;-66
2023/06/11 14:17:42;;;;;;;2.88;1.23;;;;;;;;;;20919684;28;20045;-65
2023/06/11 14:27:43;;;;;;;2.28;1.17;;;;;;;;;;20917614;28;20056;-67
2023/06/11 14:37:44;;;;;;;4.80;1.33;;;;;;;;;;20917685;28;20142;-65
2023/06/11 14:47:45;;;;;;;3.05;1.38;;;;;;;;;;20915583;28;20516;-65
2023/06/11 14:57:46;;;;;;;4.18;1.38;;;;;;;;;;20916324;28;20059;-66
2023/06/11 15:07:47;;;;;;;2.25;1.00;;;;;;;;;;20914884;28;20049;-66
2023/06/11 15:17:49;;;;;;;2.50;1.30;;;;;;;;;;20914989;28;20146;-66
2023/06/11 15:27:50;;;;;;;4.00;1.08;;;;;;;;;;20912617;28;20141;-65
2023/06/11 15:37:51;;;;;;;3.15;1.00;;;;;;;;;;20913165;28;20528;-65
2023/06/11 15:47:52;;;;;;;3.30;1.20;;;;;;;;;;20912262;28;20049;-65
2023/06/11 15:57:54;;;;;;;1.58;0.82;;;;;;;;;;20913277;28;20053;-64
2023/06/11 16:07:55;;;;;;;3.03;1.20;;;;;;;;;;20912884;28;20056;-65
2023/06/11 16:17:56;;;;;;;2.80;1.50;;;;;;;;;;20912084;28;20052;-66
2023/06/11 16:27:57;;;;;;;4.18;1.83;;;;;;;;;;20910933;28;20148;-64
2023/06/11 16:37:58;;;;;;;5.85;1.90;;;;;;;;;;20910328;28;20049;-65
2023/06/11 16:47:59;;;;;;;4.13;1.52;;;;;;;;;;20911134;28;20109;-65
2023/06/11 16:58:00;;;;;;;2.97;1.30;;;;;;;;;;20924293;28;20056;-65
2023/06/11 17:08:02;;;;;;;4.18;1.65;;;;;;;;;;20925301;28;20495;-65
2023/06/11 17:18:04;;;;;;;3.53;1.73;;;;;;;;;;20924345;28;20041;-66
2023/06/11 17:28:05;;;;;;;3.75;1.52;;;;;;;;;;20922046;28;20060;-64
2023/06/11 17:38:06;;;;;;;2.97;1.90;;;;;;;;;;20921565;28;20045;-66
2023/06/11 17:48:07;;;;;;;3.10;1.40;;;;;;;;;;20922058;28;20513;-67
2023/06/11 17:58:08;;;;;;;3.53;1.92;;;;;;;;;;20920574;28;20052;-66
2023/06/11 18:08:10;;;;;;;2.55;1.38;;;;;;;;;;20920207;28;20439;-66
2023/06/11 18:18:11;;;;;;;4.22;2.22;;;;;;;;;;20919670;28;20044;-66
2023/06/11 18:28:12;;;;;;;3.75;1.67;;;;;;;;;;20918551;28;20071;-64
2023/06/11 18:38:13;;;;;;;3.88;2.22;;;;;;;;;;20916670;28;20128;-64
2023/06/11 18:48:14;;;;;;;4.45;1.98;;;;;;;;;;20916045;28;20518;-65
2023/06/11 18:58:15;;;;;;;2.28;1.30;;;;;;;;;;20916776;28;20049;-65
2023/06/11 19:08:20;;;;;;;3.10;1.60;;;;;;;;;;20915777;28;20501;-64
2023/06/11 19:18:21;;;;;;;2.55;1.40;;;;;;;;;;20912976;28;20127;-65
2023/06/11 19:28:22;;;;;;;4.43;2.53;;;;;;;;;;20912567;28;20086;-65
2023/06/11 19:38:23;;;;;;;4.50;2.42;;;;;;;;;;20913969;28;20100;-65
2023/06/11 19:48:24;;;;;;;5.68;2.17;;;;;;;;;;20913102;28;20448;-66
2023/06/11 19:58:26;;;;;;;4.50;2.20;;;;;;;;;;20913134;28;20041;-66
2023/06/11 20:08:27;;;;;;;3.95;2.03;;;;;;;;;;20912693;28;20036;-66
2023/06/11 20:18:28;;;;;;;5.10;1.73;;;;;;;;;;20910923;28;20092;-65
2023/06/11 20:28:29;;;;;;;4.60;2.10;;;;;;;;;;20920318;28;20114;-64
2023/06/11 20:38:30;;;;;;;3.70;1.70;;;;;;;;;;20927519;28;20072;-64
2023/06/11 20:48:31;;;;;;;3.97;1.90;;;;;;;;;;20925873;28;20051;-65
2023/06/11 20:58:33;;;;;;;3.17;1.98;;;;;;;;;;20925821;28;20131;-65
2023/06/11 21:08:34;;;;;;;3.63;2.35;;;;;;;;;;20925343;28;20107;-64
2023/06/11 21:18:35;;;;;;;5.05;2.45;;;;;;;;;;20923088;28;20049;-64
2023/06/11 21:28:36;;;;;;;4.05;2.13;;;;;;;;;;20922942;28;20053;-65
2023/06/11 21:38:37;;;;;;;7.45;2.80;;;;;;;;;;20922177;28;20581;-65
2023/06/11 21:48:38;;;;;;;6.28;2.90;;;;;;;;;;20920797;28;20044;-65
2023/06/11 21:58:39;;;;;;;4.50;2.70;;;;;;;;;;20919902;28;20049;-65
2023/06/11 22:08:42;;;;;;;4.75;2.33;;;;;;;;;;20919490;28;20041;-65
2023/06/11 22:18:43;;;;;;;3.45;1.65;;;;;;;;;;20918913;28;20119;-64
2023/06/11 22:28:44;;;;;;;3.33;1.20;;;;;;;;;;20918732;28;20075;-65
2023/06/11 22:38:46;;;;;;;3.75;1.15;;;;;;;;;;20918389;28;20071;-65
2023/06/11 22:48:47;;;;;;;1.80;0.90;;;;;;;;;;20915477;28;20052;-65
2023/06/11 22:58:48;;;;;;;2.85;0.98;;;;;;;;;;20915623;28;20053;-66
2023/06/11 23:08:49;;;;;;;3.58;1.40;;;;;;;;;;20916170;28;20048;-66
2023/06/11 23:18:53;;;;;;;2.33;1.40;;;;;;;;;;20915358;28;20044;-65
2023/06/11 23:28:55;;;;;;;2.85;1.33;;;;;;;;;;20914614;28;20056;-65
2023/06/11 23:38:56;;;;;;;2.17;1.05;;;;;;;;;;20913098;28;20045;-64
2023/06/11 23:48:58;;;;;;;3.75;1.20;;;;;;;;;;20914005;28;20609;-65
2023/06/11 23:58:59;;;;;;;1.58;0.90;;;;;;;;;;20915007;28;20098;-65
